Marion, Oregon
Current Conditions -  °F | °C
As of 10:56 AM on Friday 21 Nov 2014 (Local Time) from KSLE Reporting Station
Light Rain Light Rain  
Wind Chill: 51°   Ceiling: 7400
Heat Index: 51°   Visibility: 9mi
Dew Point: 47°   Wind: 8mph
Humidity: 86%   Direction: 210°SSW
Pressure: 29.74"   Gusts: NA
Location:  44.75°N, 122.94°W
Report Text: KSLE 211856Z 21007KT 9SM -RA FEW040 BKN074 OVC090 11/08 A2974 RMK AO2 SLP071 P0003 T01060083
Loading
Personal Weather Stations






























Interactive Weather Map New forecast layout! Learn more

10-Day Weather Forecast

Advertisements
Track Severe Weather on mobile